• Join FlightAware (Why Join?)
  • Login
  • US Flag 
01:02AM EDT


 

Airport Tracker/Info


-or-


 

Live Flight TrackerFlight Track Log ✈ XOJ793 ✈ 24-Jul-2014 ✈ KBFI - KVNY

Flight Track Log - Related Links

Times and Time Zones

All times are in EDT time to prevent confusion due to time zone crossing. See the XOJ793 flight status page for this flight to view local times or setup timezone preferences in your user account.

Time Position Orientation Groundspeed Altitude Reporting Facility
EDT Latitude Longitude Course Direction KTS MPH feet Rate Location/Type
02:07PM 47.4650 -122.2350 143° Southeast 222 255 3,000  Level Seattle Center
02:08PM 47.3986 -122.1931 157° South 264 304 6,800 3,600 Climbing Seattle Center
02:09PM 47.3286 -122.1847 175° South 268 308 10,200 3,060 Climbing Seattle Center
02:10PM 47.2442 -122.1717 174° South 301 346 13,000 2,580 Climbing Seattle Center
02:11PM 47.1394 -122.1397 168° South 354 407 15,500 2,340 Climbing Seattle Center
02:12PM 47.0361 -122.1092 169° South 376 433 17,800 2,040 Climbing Seattle Center
02:13PM 46.9422 -122.0819 169° South 379 436 19,700 2,040 Climbing Seattle Center
02:14PM 46.8339 -122.0478 168° South 393 452 22,100 2,580 Climbing Seattle Center
02:15PM 46.7014 -122.0089 169° South 400 460 25,100 2,580 Climbing Seattle Center
02:16PM 46.5875 -121.9758 169° South 413 475 27,500 2,220 Climbing Seattle Center
02:17PM 46.4697 -121.9283 164° South 433 498 29,700 2,040 Climbing Seattle Center
02:18PM 46.3467 -121.8811 165° South 453 521 31,800 2,040 Climbing Seattle Center
02:19PM 46.2094 -121.8314 166° South 466 536 34,000 1,980 Climbing Seattle Center
02:20PM 46.0806 -121.7828 165° South 476 548 35,900 1,620 Climbing Seattle Center
02:21PM 45.9444 -121.7292 165° South 477 549 37,400 1,260 Climbing Seattle Center
02:22PM 45.8189 -121.6833 166° South 492 566 38,500 1,080 Climbing Seattle Center
02:23PM 45.6861 -121.6339 165° South 496 571 39,700 1,380 Climbing Seattle Center
02:24PM 45.5533 -121.5844 165° South 496 571 41,400 1,380 Climbing Seattle Center
02:25PM 45.4264 -121.5372 165° South 481 554 42,600 900 Climbing Seattle Center
02:26PM 45.2750 -121.4808 165° South 473 544 43,300 480 Climbing Seattle Center
02:28PM 45.1472 -121.4342 166° South 474 545 43,700 360 Climbing Seattle Center
02:29PM 45.0178 -121.3894 166° South 478 550 44,100 420 Climbing Seattle Center
02:30PM 44.8831 -121.3431 166° South 478 550 44,600 360 Climbing Seattle Center
02:31PM 44.7525 -121.2983 166° South 479 551 44,900 180 Climbing Seattle Center
02:32PM 44.6214 -121.2531 166° South 481 554 45,000  Climbing Seattle Center
02:33PM 44.4886 -121.2083 166° South 487 560 45,000  Level Seattle Center
02:34PM 44.3403 -121.1592 167° South 488 562 45,000  Level Seattle Center
02:35PM 44.2069 -121.1128 166° South 490 564 45,000  Level Seattle Center
02:36PM 44.0742 -121.0689 167° South 491 565 45,000  Level Seattle Center
02:37PM 43.9425 -121.0217 166° South 491 565 45,000  Level Seattle Center
02:38PM 43.8114 -120.9772 166° South 491 565 45,000  Level Seattle Center
02:39PM 43.6808 -120.9356 167° South 488 562 45,000  Level Seattle Center
02:40PM 43.5364 -120.8931 168° South 486 559 45,000  Level Seattle Center
02:41PM 43.4036 -120.8492 166° South 486 559 45,000  Level Seattle Center
02:42PM 43.2714 -120.8058 167° South 487 560 45,000  Level Seattle Center
02:43PM 43.1372 -120.7611 166° South 491 565 45,000  Level Seattle Center
02:44PM 43.0019 -120.7183 167° South 494 568 45,000  Level Seattle Center
02:45PM 42.8408 -120.6656 166° South 495 570 45,000  Level Seattle Center
02:46PM 42.7086 -120.6250 167° South 487 560 45,000  Level Seattle Center
02:47PM 42.5764 -120.5833 167° South 487 560 45,000  Level Seattle Center
02:48PM 42.4436 -120.5428 167° South 487 560 45,000  Level Seattle Center
02:49PM 42.3089 -120.5103 170° South 487 560 45,000  Level Seattle Center
02:50PM 42.1753 -120.4803 171° South 487 560 45,000  Level Seattle Center
02:51PM 42.0425 -120.4506 171° South 485 558 45,000  Level Seattle Center
02:52PM 41.9100 -120.4186 170° South 483 556 45,000  Level Seattle Center
02:53PM 41.7783 -120.3886 170° South 482 555 45,000  Level Seattle Center
02:54PM 41.6439 -120.3581 170° South 486 559 45,000  Level Seattle Center
02:55PM 41.4831 -120.3222 171° South 489 563 45,000  Level Seattle Center
02:56PM 41.3494 -120.2914 170° South 489 563 45,000  Level Seattle Center
02:57PM 41.2167 -120.2628 171° South 485 558 45,000  Level Seattle Center
02:58PM 41.0839 -120.2319 170° South 485 558 45,000  Level Seattle Center
02:59PM 40.9525 -120.2036 171° South 483 556 45,000  Level Seattle Center
03:00PM 40.8192 -120.1736 170° South 483 556 45,000  Level Seattle Center
03:01PM 40.6858 -120.1456 171° South 484 557 45,000  Level Seattle Center
03:02PM 40.5528 -120.1231 173° South 484 557 45,000  Level Seattle Center
03:03PM 40.4056 -120.1097 176° South 479 551 45,000  Level Oakland Center
03:04PM 40.2483 -120.0950 176° South 475 547 45,000  Level Oakland Center
03:06PM 40.1183 -120.0808 175° South 474 545 45,000  Level Oakland Center
03:07PM 39.9897 -120.0683 176° South 471 542 45,000  Level Oakland Center
03:08PM 39.8594 -120.0564 176° South 471 542 45,000  Level Oakland Center
03:09PM 39.7289 -120.0442 176° South 471 542 45,000  Level Oakland Center
03:10PM 39.5983 -120.0322 176° South 471 542 45,000  Level Oakland Center
03:11PM 39.4717 -120.0197 176° South 464 534 45,000  Level Oakland Center
03:12PM 39.3172 -120.0056 176° South 464 534 45,000  Level Oakland Center
03:13PM 39.1903 -119.9925 175° South 464 534 45,000  Level Oakland Center
03:14PM 39.0619 -119.9814 176° South 464 534 45,000  Level Oakland Center
03:15PM 38.9381 -119.9694 176° South 464 534 45,000  Level Oakland Center
03:16PM 38.8081 -119.9575 176° South 464 534 45,000  Level Oakland Center
03:17PM 38.6789 -119.9456 176° South 464 534 45,000  Level Oakland Center
03:18PM 38.5228 -119.9303 176° South 464 534 45,000  Level Oakland Center
03:19PM 38.3922 -119.9186 176° South 464 534 45,000  Level Oakland Center
03:20PM 38.2614 -119.9072 176° South 465 535 45,000  Level Oakland Center
03:21PM 38.1300 -119.8942 176° South 469 540 45,000  Level Oakland Center
03:22PM 37.9992 -119.8825 176° South 469 540 45,000  Level Oakland Center
03:23PM 37.8669 -119.8706 176° South 469 540 45,000  Level Oakland Center
03:24PM 37.7336 -119.8511 173° South 477 549 45,000  Level Oakland Center
03:25PM 37.5981 -119.8347 175° South 482 555 45,000  Level Oakland Center
03:26PM 37.4664 -119.8158 174° South 481 554 45,000  Level Oakland Center
03:27PM 37.3208 -119.7944 173° South 481 554 45,000  Level Oakland Center
03:28PM 37.1875 -119.7764 174° South 481 554 45,000  Level Oakland Center
03:29PM 37.0536 -119.7581 174° South 481 554 45,000  Level Oakland Center
03:30PM 36.9203 -119.7394 174° South 482 555 45,000 -300 Level Oakland Center
03:31PM 36.7603 -119.7200 174° South 482 555 44,400 -780 Descending Oakland Center
03:32PM 36.6281 -119.7014 174° South 481 554 43,500 -1,020 Descending Oakland Center
03:33PM 36.4981 -119.6847 174° South 474 545 42,400 -1,080 Descending Oakland Center
03:34PM 36.3739 -119.6667 173° South 454 522 41,300 -1,080 Descending Oakland Center
03:35PM 36.2561 -119.6517 174° South 430 495 40,200 -1,080 Descending Oakland Center
03:36PM 36.1333 -119.6347 174° South 438 504 39,100 -1,080 Descending Oakland Center
03:37PM 36.0094 -119.6189 174° South 444 511 38,000 -1,140 Descending Oakland Center
03:38PM 35.8844 -119.6181 180° South 449 517 36,800 -1,500 Descending Oakland Center
03:39PM 35.7308 -119.6247 182° South 454 522 35,000 -1,680 Descending Oakland Center
03:40PM 35.5992 -119.6292 182° South 469 540 33,400 -1,620 Descending Oakland Center
03:41PM 35.4650 -119.6331 181° South 474 545 31,700 -1,800 Descending Oakland Center
03:42PM 35.3289 -119.6397 182° South 481 554 29,800 -2,160 Descending Oakland Center
03:44PM 35.1983 -119.5917 163° South 499 574 27,300 -2,520 Descending Oakland Center
03:45PM 35.0397 -119.4567 145° Southeast 499 574 23,600 -2,520 Descending Los Angeles Center
03:46PM 34.9300 -119.3650 146° Southeast 483 556 21,100 -2,580 Descending Los Angeles Center
03:47PM 34.8114 -119.2614 144° Southeast 442 509 18,300 -2,520 Descending Los Angeles Center
03:48PM 34.7114 -119.1786 146° Southeast 440 506 16,000 -2,280 Descending Los Angeles Center
03:49PM 34.6117 -119.0953 145° Southeast 411 473 13,700 -2,040 Descending Los Angeles Center
03:50PM 34.5333 -119.0300 146° Southeast 342 394 11,900 -1,440 Descending Los Angeles Center
03:51PM 34.4642 -118.9697 144° Southeast 305 351 10,700 -1,260 Descending Los Angeles Center
03:52PM 34.4011 -118.9169 145° Southeast 276 318 9,300 -1,620 Descending Los Angeles Center
03:53PM 34.3728 -118.8356 113° Southeast 286 329 7,400 -1,620 Descending Los Angeles Center
03:54PM 34.3811 -118.7436 84° East 276 318 6,000 -1,020 Descending Los Angeles Center
03:55PM 34.3889 -118.6431 85° East 247 284 5,300 -780 Descending Los Angeles Center
03:56PM 34.3828 -118.5683 96° East 222 255 4,500 -720 Descending Los Angeles Center
03:57PM 34.3411 -118.5186 135° Southeast 216 249 3,800 -960 Descending Los Angeles Center
03:58PM 34.2886 -118.4953 160° South 208 239 2,600 -1,080 Descending Los Angeles Center
03:59PM 34.2453 -118.4944 179° South 168 193 1,600 -720 Descending Los Angeles Center
04:01PM 34.1983 -118.4906 176° South 156 180 1,200 -420 Descending Los Angeles Center